Terminal Aerodrome Forecast
Issued by NWS

Home | Current Version | Previous Version | Text Only | Print | Product List | Glossary On
Versions: 1 2 3 4 5 6 7 8 9 10 11 12 13 14
000
FTUS41 KCLE 252334
TAFFDY
TAF
KFDY 252334Z 2600/2624 16008KT P6SM SCT080 BKN250
     FM260700 18006KT P6SM VCTS SCT025CB BKN080
     FM261100 20006KT 5SM BR BKN080
     FM261400 22010KT P6SM SCT050=

USA.gov is the U.S. government's official web portal to all federal, state and local government web resources and services.